Badger, Kansas
Current Conditions -  °F | °C
As of 4:53 PM on Tuesday 27 Jan 2015 (Local Time) from KJLN Reporting Station
Clear Clear  
Wind Chill: 63°   Ceiling: Unl
Heat Index: 63°   Visibility: 10mi
Dew Point: 27°   Wind: 0mph
Humidity: 26%   Direction: NA
Pressure: 30.1"   Gusts: NA
Location:  37.0394°N, 94.6644°W
Report Text: KJLN 272253Z 00000KT 10SM CLR 17/M03 A3010 RMK AO2 SLP191 T01721028 $
Loading
Personal Weather Stations






























Interactive Weather Map New forecast layout! Learn more

10-Day Weather Forecast

Advertisements
Track Severe Weather on mobile